sensor_id;sensor_type;location;lat;lon;timestamp;temperature;humidity
11908;DHT22;6014;47.690;9.130;2023-07-29T00:00:27;17.10;99.90
11908;DHT22;6014;47.690;9.130;2023-07-29T00:02:55;17.00;99.90
11908;DHT22;6014;47.690;9.130;2023-07-29T00:05:38;17.00;99.90
11908;DHT22;6014;47.690;9.130;2023-07-29T00:08:06;17.10;99.90
11908;DHT22;6014;47.690;9.130;2023-07-29T00:10:36;17.10;99.90
11908;DHT22;6014;47.690;9.130;2023-07-29T00:13:05;17.10;99.90
11908;DHT22;6014;47.690;9.130;2023-07-29T00:15:39;17.00;99.90
11908;DHT22;6014;47.690;9.130;2023-07-29T00:18:07;17.00;99.90
11908;DHT22;6014;47.690;9.130;2023-07-29T00:20:35;17.10;99.90
11908;DHT22;6014;47.690;9.130;2023-07-29T00:23:04;17.10;99.90
11908;DHT22;6014;47.690;9.130;2023-07-29T00:25:32;17.10;99.90
11908;DHT22;6014;47.690;9.130;2023-07-29T00:28:00;17.10;99.90
11908;DHT22;6014;47.690;9.130;2023-07-29T00:30:28;17.10;99.90
11908;DHT22;6014;47.690;9.130;2023-07-29T00:32:56;17.00;99.90
11908;DHT22;6014;47.690;9.130;2023-07-29T00:35:24;17.10;99.90
11908;DHT22;6014;47.690;9.130;2023-07-29T00:37:53;17.10;99.90
11908;DHT22;6014;47.690;9.130;2023-07-29T00:40:23;17.00;99.90
11908;DHT22;6014;47.690;9.130;2023-07-29T00:42:51;17.00;99.90
11908;DHT22;6014;47.690;9.130;2023-07-29T00:45:29;17.10;99.90
11908;DHT22;6014;47.690;9.130;2023-07-29T00:48:00;17.00;99.90
11908;DHT22;6014;47.690;9.130;2023-07-29T00:50:31;17.00;99.90
11908;DHT22;6014;47.690;9.130;2023-07-29T00:53:06;17.00;99.90
11908;DHT22;6014;47.690;9.130;2023-07-29T00:55:35;17.00;99.90
11908;DHT22;6014;47.690;9.130;2023-07-29T00:58:03;16.90;99.90
11908;DHT22;6014;47.690;9.130;2023-07-29T01:00:31;16.80;99.90
11908;DHT22;6014;47.690;9.130;2023-07-29T01:03:00;16.80;99.90
11908;DHT22;6014;47.690;9.130;2023-07-29T01:05:34;16.80;99.90
11908;DHT22;6014;47.690;9.130;2023-07-29T01:08:17;16.80;99.90
11908;DHT22;6014;47.690;9.130;2023-07-29T01:10:58;16.80;99.90
11908;DHT22;6014;47.690;9.130;2023-07-29T01:13:33;16.80;99.90
11908;DHT22;6014;47.690;9.130;2023-07-29T01:16:09;16.80;99.90
11908;DHT22;6014;47.690;9.130;2023-07-29T01:18:39;16.80;99.90
11908;DHT22;6014;47.690;9.130;2023-07-29T01:21:08;16.80;99.90
11908;DHT22;6014;47.690;9.130;2023-07-29T01:23:39;16.80;99.90
11908;DHT22;6014;47.690;9.130;2023-07-29T01:26:07;17.00;99.90
11908;DHT22;6014;47.690;9.130;2023-07-29T01:28:35;17.00;99.90
11908;DHT22;6014;47.690;9.130;2023-07-29T01:31:11;16.90;99.90
11908;DHT22;6014;47.690;9.130;2023-07-29T01:33:47;16.80;99.90
11908;DHT22;6014;47.690;9.130;2023-07-29T01:36:20;16.80;99.90
11908;DHT22;6014;47.690;9.130;2023-07-29T01:38:51;16.80;99.90
11908;DHT22;6014;47.690;9.130;2023-07-29T01:41:20;16.80;99.90
11908;DHT22;6014;47.690;9.130;2023-07-29T01:43:49;16.90;99.90
11908;DHT22;6014;47.690;9.130;2023-07-29T01:46:18;16.90;99.90
11908;DHT22;6014;47.690;9.130;2023-07-29T01:48:46;16.80;99.90
11908;DHT22;6014;47.690;9.130;2023-07-29T01:51:14;16.70;99.90
11908;DHT22;6014;47.690;9.130;2023-07-29T01:53:42;16.60;99.90
11908;DHT22;6014;47.690;9.130;2023-07-29T01:56:11;16.70;99.90
11908;DHT22;6014;47.690;9.130;2023-07-29T01:58:39;16.70;99.90
11908;DHT22;6014;47.690;9.130;2023-07-29T02:01:07;16.80;99.90
11908;DHT22;6014;47.690;9.130;2023-07-29T02:03:36;16.80;99.90
11908;DHT22;6014;47.690;9.130;2023-07-29T02:06:04;16.90;99.90
11908;DHT22;6014;47.690;9.130;2023-07-29T02:08:32;16.80;99.90
11908;DHT22;6014;47.690;9.130;2023-07-29T02:11:00;16.90;99.90
11908;DHT22;6014;47.690;9.130;2023-07-29T02:13:29;17.00;99.90
11908;DHT22;6014;47.690;9.130;2023-07-29T02:15:57;17.00;99.90
11908;DHT22;6014;47.690;9.130;2023-07-29T02:18:25;17.00;99.90
11908;DHT22;6014;47.690;9.130;2023-07-29T02:20:53;17.00;99.90
11908;DHT22;6014;47.690;9.130;2023-07-29T02:23:21;16.90;99.90
11908;DHT22;6014;47.690;9.130;2023-07-29T02:25:50;16.80;99.90
11908;DHT22;6014;47.690;9.130;2023-07-29T02:28:19;16.60;99.90
11908;DHT22;6014;47.690;9.130;2023-07-29T02:31:09;16.70;99.90
11908;DHT22;6014;47.690;9.130;2023-07-29T02:33:39;16.80;99.90
11908;DHT22;6014;47.690;9.130;2023-07-29T02:36:07;16.80;99.90
11908;DHT22;6014;47.690;9.130;2023-07-29T02:38:35;16.80;99.90
11908;DHT22;6014;47.690;9.130;2023-07-29T02:41:15;16.90;99.90
11908;DHT22;6014;47.690;9.130;2023-07-29T02:43:47;17.00;99.90
11908;DHT22;6014;47.690;9.130;2023-07-29T02:46:17;16.90;99.90
11908;DHT22;6014;47.690;9.130;2023-07-29T02:48:45;16.90;99.90
11908;DHT22;6014;47.690;9.130;2023-07-29T02:51:14;16.90;99.90
11908;DHT22;6014;47.690;9.130;2023-07-29T02:53:50;17.00;99.90
11908;DHT22;6014;47.690;9.130;2023-07-29T02:56:18;16.90;99.90
11908;DHT22;6014;47.690;9.130;2023-07-29T02:58:46;16.80;99.90
11908;DHT22;6014;47.690;9.130;2023-07-29T03:01:23;16.80;99.90
11908;DHT22;6014;47.690;9.130;2023-07-29T03:03:51;16.90;99.90
11908;DHT22;6014;47.690;9.130;2023-07-29T03:06:19;16.90;99.90
11908;DHT22;6014;47.690;9.130;2023-07-29T03:08:47;16.90;99.90
11908;DHT22;6014;47.690;9.130;2023-07-29T03:11:17;17.00;99.90
11908;DHT22;6014;47.690;9.130;2023-07-29T03:13:45;16.90;99.90
11908;DHT22;6014;47.690;9.130;2023-07-29T03:16:14;16.90;99.90
11908;DHT22;6014;47.690;9.130;2023-07-29T03:18:44;17.00;99.90
11908;DHT22;6014;47.690;9.130;2023-07-29T03:21:15;16.90;99.90
11908;DHT22;6014;47.690;9.130;2023-07-29T03:23:43;16.80;99.90
11908;DHT22;6014;47.690;9.130;2023-07-29T03:26:11;16.80;99.90
11908;DHT22;6014;47.690;9.130;2023-07-29T03:28:41;16.80;99.90
11908;DHT22;6014;47.690;9.130;2023-07-29T03:31:09;16.80;99.90
11908;DHT22;6014;47.690;9.130;2023-07-29T03:33:38;16.90;99.90
11908;DHT22;6014;47.690;9.130;2023-07-29T03:36:07;17.00;99.90
11908;DHT22;6014;47.690;9.130;2023-07-29T03:38:35;17.10;99.90
11908;DHT22;6014;47.690;9.130;2023-07-29T03:41:07;17.20;99.90
11908;DHT22;6014;47.690;9.130;2023-07-29T03:43:40;17.10;99.90
11908;DHT22;6014;47.690;9.130;2023-07-29T03:46:08;17.20;99.90
11908;DHT22;6014;47.690;9.130;2023-07-29T03:48:38;17.20;99.90
11908;DHT22;6014;47.690;9.130;2023-07-29T03:51:07;17.20;99.90
11908;DHT22;6014;47.690;9.130;2023-07-29T03:53:35;17.20;99.90
11908;DHT22;6014;47.690;9.130;2023-07-29T03:56:04;17.30;99.90
11908;DHT22;6014;47.690;9.130;2023-07-29T03:58:32;17.20;99.90
11908;DHT22;6014;47.690;9.130;2023-07-29T04:01:00;17.30;99.90
11908;DHT22;6014;47.690;9.130;2023-07-29T04:03:28;17.30;99.90
11908;DHT22;6014;47.690;9.130;2023-07-29T04:05:57;17.40;99.90
11908;DHT22;6014;47.690;9.130;2023-07-29T04:08:27;17.40;99.90
11908;DHT22;6014;47.690;9.130;2023-07-29T04:10:55;17.30;99.90
11908;DHT22;6014;47.690;9.130;2023-07-29T04:13:23;17.30;99.90
11908;DHT22;6014;47.690;9.130;2023-07-29T04:15:51;17.40;99.90
11908;DHT22;6014;47.690;9.130;2023-07-29T04:18:19;17.50;99.90
11908;DHT22;6014;47.690;9.130;2023-07-29T04:20:47;17.60;99.90
11908;DHT22;6014;47.690;9.130;2023-07-29T04:23:15;17.70;99.90
11908;DHT22;6014;47.690;9.130;2023-07-29T04:25:45;17.60;99.90
11908;DHT22;6014;47.690;9.130;2023-07-29T04:28:13;17.40;99.90
11908;DHT22;6014;47.690;9.130;2023-07-29T04:30:42;17.30;99.90
11908;DHT22;6014;47.690;9.130;2023-07-29T04:33:10;17.30;99.90
11908;DHT22;6014;47.690;9.130;2023-07-29T04:35:38;17.40;99.90
11908;DHT22;6014;47.690;9.130;2023-07-29T04:38:06;17.30;99.90
11908;DHT22;6014;47.690;9.130;2023-07-29T04:40:34;17.50;99.90
11908;DHT22;6014;47.690;9.130;2023-07-29T04:43:03;17.50;99.90
11908;DHT22;6014;47.690;9.130;2023-07-29T04:45:31;17.50;99.90
11908;DHT22;6014;47.690;9.130;2023-07-29T04:48:00;17.40;99.90
11908;DHT22;6014;47.690;9.130;2023-07-29T04:50:28;17.40;99.90
11908;DHT22;6014;47.690;9.130;2023-07-29T04:52:56;17.40;99.90
11908;DHT22;6014;47.690;9.130;2023-07-29T04:55:24;17.40;99.90
11908;DHT22;6014;47.690;9.130;2023-07-29T04:57:52;17.50;99.90
11908;DHT22;6014;47.690;9.130;2023-07-29T05:00:22;17.40;99.90
11908;DHT22;6014;47.690;9.130;2023-07-29T05:02:50;17.60;99.90
11908;DHT22;6014;47.690;9.130;2023-07-29T05:05:18;17.70;99.90
11908;DHT22;6014;47.690;9.130;2023-07-29T05:07:46;17.60;99.90
11908;DHT22;6014;47.690;9.130;2023-07-29T05:10:14;17.60;99.90
11908;DHT22;6014;47.690;9.130;2023-07-29T05:12:42;17.60;99.90
11908;DHT22;6014;47.690;9.130;2023-07-29T05:15:10;17.60;99.90
11908;DHT22;6014;47.690;9.130;2023-07-29T05:17:40;17.60;99.90
11908;DHT22;6014;47.690;9.130;2023-07-29T05:20:09;17.60;99.90
11908;DHT22;6014;47.690;9.130;2023-07-29T05:22:38;17.70;99.90
11908;DHT22;6014;47.690;9.130;2023-07-29T05:25:07;17.80;99.90
11908;DHT22;6014;47.690;9.130;2023-07-29T05:27:35;17.90;99.90
11908;DHT22;6014;47.690;9.130;2023-07-29T05:30:03;18.20;99.90
11908;DHT22;6014;47.690;9.130;2023-07-29T05:32:31;18.10;99.90
11908;DHT22;6014;47.690;9.130;2023-07-29T05:35:01;18.60;99.90
11908;DHT22;6014;47.690;9.130;2023-07-29T05:37:29;19.00;99.90
11908;DHT22;6014;47.690;9.130;2023-07-29T05:39:57;18.80;99.90
11908;DHT22;6014;47.690;9.130;2023-07-29T05:42:26;18.70;99.90
11908;DHT22;6014;47.690;9.130;2023-07-29T05:45:06;18.70;99.90
11908;DHT22;6014;47.690;9.130;2023-07-29T05:47:34;18.70;99.90
11908;DHT22;6014;47.690;9.130;2023-07-29T05:50:04;18.70;99.90
11908;DHT22;6014;47.690;9.130;2023-07-29T05:52:32;18.70;99.90
11908;DHT22;6014;47.690;9.130;2023-07-29T05:55:01;18.70;99.90
11908;DHT22;6014;47.690;9.130;2023-07-29T05:57:51;18.80;99.90
11908;DHT22;6014;47.690;9.130;2023-07-29T06:00:20;18.70;99.90
11908;DHT22;6014;47.690;9.130;2023-07-29T06:02:50;18.70;99.90
11908;DHT22;6014;47.690;9.130;2023-07-29T06:05:19;18.90;99.90
11908;DHT22;6014;47.690;9.130;2023-07-29T06:07:56;18.90;99.90
11908;DHT22;6014;47.690;9.130;2023-07-29T06:10:24;19.00;99.90
11908;DHT22;6014;47.690;9.130;2023-07-29T06:12:52;20.00;99.90
11908;DHT22;6014;47.690;9.130;2023-07-29T06:15:20;20.40;99.90
11908;DHT22;6014;47.690;9.130;2023-07-29T06:18:08;20.30;99.90
11908;DHT22;6014;47.690;9.130;2023-07-29T06:20:44;20.60;99.90
11908;DHT22;6014;47.690;9.130;2023-07-29T06:23:28;21.10;99.90
11908;DHT22;6014;47.690;9.130;2023-07-29T06:25:58;21.00;99.90
11908;DHT22;6014;47.690;9.130;2023-07-29T06:28:28;21.40;99.90
11908;DHT22;6014;47.690;9.130;2023-07-29T06:31:08;21.40;99.90
11908;DHT22;6014;47.690;9.130;2023-07-29T06:33:44;20.90;99.90
11908;DHT22;6014;47.690;9.130;2023-07-29T06:36:14;20.80;99.90
11908;DHT22;6014;47.690;9.130;2023-07-29T06:38:42;21.20;99.90
11908;DHT22;6014;47.690;9.130;2023-07-29T06:41:11;21.50;99.90
11908;DHT22;6014;47.690;9.130;2023-07-29T06:43:43;21.40;99.90
11908;DHT22;6014;47.690;9.130;2023-07-29T06:46:11;21.60;99.90
11908;DHT22;6014;47.690;9.130;2023-07-29T06:48:39;21.70;99.90
11908;DHT22;6014;47.690;9.130;2023-07-29T06:51:16;22.20;99.90
11908;DHT22;6014;47.690;9.130;2023-07-29T06:53:44;22.40;99.90
11908;DHT22;6014;47.690;9.130;2023-07-29T06:56:13;22.80;99.90
11908;DHT22;6014;47.690;9.130;2023-07-29T06:58:41;23.00;99.90
11908;DHT22;6014;47.690;9.130;2023-07-29T07:01:10;22.90;99.90
11908;DHT22;6014;47.690;9.130;2023-07-29T07:03:38;23.00;99.90
11908;DHT22;6014;47.690;9.130;2023-07-29T07:06:06;22.70;99.90
11908;DHT22;6014;47.690;9.130;2023-07-29T07:08:36;23.30;99.90
11908;DHT22;6014;47.690;9.130;2023-07-29T07:11:04;23.40;99.90
11908;DHT22;6014;47.690;9.130;2023-07-29T07:13:32;23.20;99.90
11908;DHT22;6014;47.690;9.130;2023-07-29T07:16:00;23.30;99.90
11908;DHT22;6014;47.690;9.130;2023-07-29T07:18:28;23.20;99.90
11908;DHT22;6014;47.690;9.130;2023-07-29T07:20:56;22.80;99.90
11908;DHT22;6014;47.690;9.130;2023-07-29T07:23:31;22.30;99.90
11908;DHT22;6014;47.690;9.130;2023-07-29T07:26:00;22.10;99.90
11908;DHT22;6014;47.690;9.130;2023-07-29T07:28:29;22.00;99.90
11908;DHT22;6014;47.690;9.130;2023-07-29T07:30:57;22.00;99.90
11908;DHT22;6014;47.690;9.130;2023-07-29T07:33:26;22.50;99.90
11908;DHT22;6014;47.690;9.130;2023-07-29T07:35:54;22.90;99.90
11908;DHT22;6014;47.690;9.130;2023-07-29T07:38:22;23.20;99.90
11908;DHT22;6014;47.690;9.130;2023-07-29T07:40:53;24.00;99.90
11908;DHT22;6014;47.690;9.130;2023-07-29T07:43:24;24.40;99.90
11908;DHT22;6014;47.690;9.130;2023-07-29T07:45:58;24.10;99.90
11908;DHT22;6014;47.690;9.130;2023-07-29T07:48:26;24.70;99.90
11908;DHT22;6014;47.690;9.130;2023-07-29T07:50:58;24.40;99.90
11908;DHT22;6014;47.690;9.130;2023-07-29T07:53:26;24.40;99.90
11908;DHT22;6014;47.690;9.130;2023-07-29T07:55:54;24.60;99.90
11908;DHT22;6014;47.690;9.130;2023-07-29T07:58:31;25.00;99.90
11908;DHT22;6014;47.690;9.130;2023-07-29T08:01:01;25.10;99.90
11908;DHT22;6014;47.690;9.130;2023-07-29T08:03:30;25.40;99.90
11908;DHT22;6014;47.690;9.130;2023-07-29T08:05:58;24.90;99.90
11908;DHT22;6014;47.690;9.130;2023-07-29T08:08:27;25.10;99.90
11908;DHT22;6014;47.690;9.130;2023-07-29T08:11:13;25.40;99.90
11908;DHT22;6014;47.690;9.130;2023-07-29T08:13:42;25.40;99.90
11908;DHT22;6014;47.690;9.130;2023-07-29T08:16:12;25.60;99.90
11908;DHT22;6014;47.690;9.130;2023-07-29T08:19:04;26.50;99.90
11908;DHT22;6014;47.690;9.130;2023-07-29T08:21:42;25.20;99.90
11908;DHT22;6014;47.690;9.130;2023-07-29T08:24:12;25.30;99.90
11908;DHT22;6014;47.690;9.130;2023-07-29T08:26:44;24.40;99.90
11908;DHT22;6014;47.690;9.130;2023-07-29T08:29:21;24.70;99.90
11908;DHT22;6014;47.690;9.130;2023-07-29T08:32:02;25.40;99.90
11908;DHT22;6014;47.690;9.130;2023-07-29T08:34:49;24.90;99.90
11908;DHT22;6014;47.690;9.130;2023-07-29T08:37:18;25.20;99.90
11908;DHT22;6014;47.690;9.130;2023-07-29T08:39:59;25.00;99.90
11908;DHT22;6014;47.690;9.130;2023-07-29T08:42:46;25.10;99.90
11908;DHT22;6014;47.690;9.130;2023-07-29T08:45:39;25.10;99.90
11908;DHT22;6014;47.690;9.130;2023-07-29T08:48:10;25.10;99.90
11908;DHT22;6014;47.690;9.130;2023-07-29T08:50:49;25.00;99.90
11908;DHT22;6014;47.690;9.130;2023-07-29T08:53:19;24.60;99.90
11908;DHT22;6014;47.690;9.130;2023-07-29T08:55:51;24.30;99.90
11908;DHT22;6014;47.690;9.130;2023-07-29T08:58:20;24.20;99.90
11908;DHT22;6014;47.690;9.130;2023-07-29T09:00:50;24.30;99.90
11908;DHT22;6014;47.690;9.130;2023-07-29T09:03:20;24.60;99.90
11908;DHT22;6014;47.690;9.130;2023-07-29T09:05:48;24.90;99.90
11908;DHT22;6014;47.690;9.130;2023-07-29T09:08:16;25.20;99.90
11908;DHT22;6014;47.690;9.130;2023-07-29T09:10:45;25.60;99.90
11908;DHT22;6014;47.690;9.130;2023-07-29T09:13:13;25.40;99.90
11908;DHT22;6014;47.690;9.130;2023-07-29T09:15:41;25.70;99.90
11908;DHT22;6014;47.690;9.130;2023-07-29T09:18:14;25.60;99.90
11908;DHT22;6014;47.690;9.130;2023-07-29T09:20:43;25.60;99.90
11908;DHT22;6014;47.690;9.130;2023-07-29T09:23:11;25.70;99.90
11908;DHT22;6014;47.690;9.130;2023-07-29T09:25:39;25.70;99.90
11908;DHT22;6014;47.690;9.130;2023-07-29T09:28:09;25.70;99.90
11908;DHT22;6014;47.690;9.130;2023-07-29T09:30:38;25.70;99.90
11908;DHT22;6014;47.690;9.130;2023-07-29T09:33:07;25.50;99.90
11908;DHT22;6014;47.690;9.130;2023-07-29T09:35:39;26.00;99.90
11908;DHT22;6014;47.690;9.130;2023-07-29T09:38:15;26.30;99.90
11908;DHT22;6014;47.690;9.130;2023-07-29T09:40:43;26.00;99.90
11908;DHT22;6014;47.690;9.130;2023-07-29T09:43:12;26.30;99.90
11908;DHT22;6014;47.690;9.130;2023-07-29T09:45:40;26.50;99.90
11908;DHT22;6014;47.690;9.130;2023-07-29T09:48:08;26.40;99.90
11908;DHT22;6014;47.690;9.130;2023-07-29T09:50:37;26.70;99.90
11908;DHT22;6014;47.690;9.130;2023-07-29T09:53:07;26.60;99.10
11908;DHT22;6014;47.690;9.130;2023-07-29T09:55:35;27.00;99.60
11908;DHT22;6014;47.690;9.130;2023-07-29T09:58:03;27.10;99.90
11908;DHT22;6014;47.690;9.130;2023-07-29T10:00:35;27.30;99.60
11908;DHT22;6014;47.690;9.130;2023-07-29T10:03:06;27.10;98.30
11908;DHT22;6014;47.690;9.130;2023-07-29T10:05:34;27.50;98.40
11908;DHT22;6014;47.690;9.130;2023-07-29T10:08:03;27.70;97.50
11908;DHT22;6014;47.690;9.130;2023-07-29T10:10:42;27.40;97.80
11908;DHT22;6014;47.690;9.130;2023-07-29T10:13:27;27.70;96.50
11908;DHT22;6014;47.690;9.130;2023-07-29T10:15:58;28.00;97.30
11908;DHT22;6014;47.690;9.130;2023-07-29T10:18:33;27.60;95.80
11908;DHT22;6014;47.690;9.130;2023-07-29T10:21:02;28.10;95.60
11908;DHT22;6014;47.690;9.130;2023-07-29T10:23:34;27.60;95.70
11908;DHT22;6014;47.690;9.130;2023-07-29T10:26:07;28.50;96.80
11908;DHT22;6014;47.690;9.130;2023-07-29T10:28:40;28.70;94.90
11908;DHT22;6014;47.690;9.130;2023-07-29T10:31:10;28.20;93.90
11908;DHT22;6014;47.690;9.130;2023-07-29T10:33:39;27.80;95.00
11908;DHT22;6014;47.690;9.130;2023-07-29T10:36:08;27.70;95.10
11908;DHT22;6014;47.690;9.130;2023-07-29T10:38:37;28.20;94.40
11908;DHT22;6014;47.690;9.130;2023-07-29T10:41:10;28.10;94.00
11908;DHT22;6014;47.690;9.130;2023-07-29T10:43:38;28.10;93.00
11908;DHT22;6014;47.690;9.130;2023-07-29T10:46:15;28.10;92.60
11908;DHT22;6014;47.690;9.130;2023-07-29T10:48:52;28.30;93.00
11908;DHT22;6014;47.690;9.130;2023-07-29T10:51:25;28.60;91.90
11908;DHT22;6014;47.690;9.130;2023-07-29T10:53:55;27.90;91.80
11908;DHT22;6014;47.690;9.130;2023-07-29T10:56:29;28.30;91.90
11908;DHT22;6014;47.690;9.130;2023-07-29T11:01:51;28.40;90.50
11908;DHT22;6014;47.690;9.130;2023-07-29T11:04:25;28.50;90.60
11908;DHT22;6014;47.690;9.130;2023-07-29T11:07:25;28.30;88.60
11908;DHT22;6014;47.690;9.130;2023-07-29T11:10:01;28.50;90.20
11908;DHT22;6014;47.690;9.130;2023-07-29T11:12:43;28.60;88.00
11908;DHT22;6014;47.690;9.130;2023-07-29T11:15:20;28.60;88.80
11908;DHT22;6014;47.690;9.130;2023-07-29T11:17:50;28.30;90.40
11908;DHT22;6014;47.690;9.130;2023-07-29T11:20:33;28.60;88.10
11908;DHT22;6014;47.690;9.130;2023-07-29T11:23:03;28.50;86.80
11908;DHT22;6014;47.690;9.130;2023-07-29T11:25:33;28.00;89.20
11908;DHT22;6014;47.690;9.130;2023-07-29T11:28:05;28.10;90.20
11908;DHT22;6014;47.690;9.130;2023-07-29T11:30:38;28.20;90.00
11908;DHT22;6014;47.690;9.130;2023-07-29T11:33:07;28.10;90.10
11908;DHT22;6014;47.690;9.130;2023-07-29T11:35:35;28.20;88.60
11908;DHT22;6014;47.690;9.130;2023-07-29T11:38:15;28.00;90.50
11908;DHT22;6014;47.690;9.130;2023-07-29T11:40:54;28.10;88.40
11908;DHT22;6014;47.690;9.130;2023-07-29T11:43:24;27.70;88.90
11908;DHT22;6014;47.690;9.130;2023-07-29T11:45:53;28.00;90.20
11908;DHT22;6014;47.690;9.130;2023-07-29T11:48:28;27.70;88.60
11908;DHT22;6014;47.690;9.130;2023-07-29T11:50:56;27.70;88.80
11908;DHT22;6014;47.690;9.130;2023-07-29T11:53:28;28.20;88.20
11908;DHT22;6014;47.690;9.130;2023-07-29T11:55:57;28.50;86.40
11908;DHT22;6014;47.690;9.130;2023-07-29T11:58:26;28.50;86.10
11908;DHT22;6014;47.690;9.130;2023-07-29T12:00:55;27.70;86.10
11908;DHT22;6014;47.690;9.130;2023-07-29T12:03:26;27.60;87.00
11908;DHT22;6014;47.690;9.130;2023-07-29T12:05:55;27.90;86.90
11908;DHT22;6014;47.690;9.130;2023-07-29T12:08:23;27.90;87.30
11908;DHT22;6014;47.690;9.130;2023-07-29T12:10:51;27.50;89.40
11908;DHT22;6014;47.690;9.130;2023-07-29T12:13:23;27.30;90.00
11908;DHT22;6014;47.690;9.130;2023-07-29T12:16:01;26.80;90.70
11908;DHT22;6014;47.690;9.130;2023-07-29T12:18:30;26.60;90.80
11908;DHT22;6014;47.690;9.130;2023-07-29T12:20:59;26.30;91.20
11908;DHT22;6014;47.690;9.130;2023-07-29T12:23:27;26.10;92.40
11908;DHT22;6014;47.690;9.130;2023-07-29T12:25:57;25.80;91.80
11908;DHT22;6014;47.690;9.130;2023-07-29T12:28:25;25.50;92.40
11908;DHT22;6014;47.690;9.130;2023-07-29T12:30:56;25.20;94.10
11908;DHT22;6014;47.690;9.130;2023-07-29T12:33:34;24.70;96.40
11908;DHT22;6014;47.690;9.130;2023-07-29T12:36:03;23.80;99.50
11908;DHT22;6014;47.690;9.130;2023-07-29T12:38:37;22.90;99.90
11908;DHT22;6014;47.690;9.130;2023-07-29T12:41:06;22.40;99.90
11908;DHT22;6014;47.690;9.130;2023-07-29T12:43:34;22.20;99.90
11908;DHT22;6014;47.690;9.130;2023-07-29T12:46:03;21.90;99.90
11908;DHT22;6014;47.690;9.130;2023-07-29T12:48:34;21.70;99.90
11908;DHT22;6014;47.690;9.130;2023-07-29T12:51:03;21.70;99.90
11908;DHT22;6014;47.690;9.130;2023-07-29T12:53:31;21.60;99.90
11908;DHT22;6014;47.690;9.130;2023-07-29T12:55:59;21.60;99.90
11908;DHT22;6014;47.690;9.130;2023-07-29T12:58:28;21.60;99.90
11908;DHT22;6014;47.690;9.130;2023-07-29T13:00:56;21.70;99.90
11908;DHT22;6014;47.690;9.130;2023-07-29T13:03:35;21.70;99.90
11908;DHT22;6014;47.690;9.130;2023-07-29T13:06:03;21.80;99.90
11908;DHT22;6014;47.690;9.130;2023-07-29T13:08:31;21.80;99.90
11908;DHT22;6014;47.690;9.130;2023-07-29T13:10:59;21.80;99.90
11908;DHT22;6014;47.690;9.130;2023-07-29T13:13:27;21.80;99.90
11908;DHT22;6014;47.690;9.130;2023-07-29T13:16:04;21.80;99.90
11908;DHT22;6014;47.690;9.130;2023-07-29T13:18:32;21.80;99.90
11908;DHT22;6014;47.690;9.130;2023-07-29T13:21:02;21.60;99.90
11908;DHT22;6014;47.690;9.130;2023-07-29T13:23:30;21.50;99.90
11908;DHT22;6014;47.690;9.130;2023-07-29T13:26:00;21.30;99.90
11908;DHT22;6014;47.690;9.130;2023-07-29T13:28:30;21.10;99.90
11908;DHT22;6014;47.690;9.130;2023-07-29T13:31:00;21.10;99.90
11908;DHT22;6014;47.690;9.130;2023-07-29T13:33:31;21.10;99.90
11908;DHT22;6014;47.690;9.130;2023-07-29T13:36:02;21.10;99.90
11908;DHT22;6014;47.690;9.130;2023-07-29T13:38:30;21.10;99.90
11908;DHT22;6014;47.690;9.130;2023-07-29T13:41:07;21.20;99.90
11908;DHT22;6014;47.690;9.130;2023-07-29T13:43:36;21.20;99.90
11908;DHT22;6014;47.690;9.130;2023-07-29T13:46:04;21.10;99.90
11908;DHT22;6014;47.690;9.130;2023-07-29T13:48:33;21.10;99.90
11908;DHT22;6014;47.690;9.130;2023-07-29T13:51:04;21.10;99.90
11908;DHT22;6014;47.690;9.130;2023-07-29T13:53:40;21.00;99.90
11908;DHT22;6014;47.690;9.130;2023-07-29T13:56:08;20.80;99.90
11908;DHT22;6014;47.690;9.130;2023-07-29T13:58:36;20.40;99.90
11908;DHT22;6014;47.690;9.130;2023-07-29T14:01:05;20.00;99.90
11908;DHT22;6014;47.690;9.130;2023-07-29T14:03:34;19.80;99.90
11908;DHT22;6014;47.690;9.130;2023-07-29T14:06:04;19.70;99.90
11908;DHT22;6014;47.690;9.130;2023-07-29T14:08:33;19.60;99.90
11908;DHT22;6014;47.690;9.130;2023-07-29T14:11:02;19.50;99.90
11908;DHT22;6014;47.690;9.130;2023-07-29T14:13:38;19.50;99.90
11908;DHT22;6014;47.690;9.130;2023-07-29T14:16:08;19.50;99.90
11908;DHT22;6014;47.690;9.130;2023-07-29T14:18:36;19.40;99.90
11908;DHT22;6014;47.690;9.130;2023-07-29T14:21:15;19.40;99.90
11908;DHT22;6014;47.690;9.130;2023-07-29T14:23:45;19.40;99.90
11908;DHT22;6014;47.690;9.130;2023-07-29T14:26:13;19.40;99.90
11908;DHT22;6014;47.690;9.130;2023-07-29T14:28:42;19.50;99.90
11908;DHT22;6014;47.690;9.130;2023-07-29T14:31:13;19.50;99.90
11908;DHT22;6014;47.690;9.130;2023-07-29T14:33:43;19.50;99.90
11908;DHT22;6014;47.690;9.130;2023-07-29T14:36:11;19.60;99.90
11908;DHT22;6014;47.690;9.130;2023-07-29T14:38:44;19.80;99.90
11908;DHT22;6014;47.690;9.130;2023-07-29T14:41:13;20.00;99.90
11908;DHT22;6014;47.690;9.130;2023-07-29T14:43:42;20.20;99.90
11908;DHT22;6014;47.690;9.130;2023-07-29T14:46:10;20.30;99.90
11908;DHT22;6014;47.690;9.130;2023-07-29T14:48:38;20.50;99.90
11908;DHT22;6014;47.690;9.130;2023-07-29T14:51:06;20.50;99.90
11908;DHT22;6014;47.690;9.130;2023-07-29T14:53:34;20.60;99.90
11908;DHT22;6014;47.690;9.130;2023-07-29T14:56:04;20.60;99.90
11908;DHT22;6014;47.690;9.130;2023-07-29T14:58:32;20.60;99.90
11908;DHT22;6014;47.690;9.130;2023-07-29T15:01:00;20.60;99.90
11908;DHT22;6014;47.690;9.130;2023-07-29T15:03:29;20.40;99.90
11908;DHT22;6014;47.690;9.130;2023-07-29T15:05:57;20.20;99.90
11908;DHT22;6014;47.690;9.130;2023-07-29T15:08:30;20.00;99.90
11908;DHT22;6014;47.690;9.130;2023-07-29T15:11:01;19.90;99.90
11908;DHT22;6014;47.690;9.130;2023-07-29T15:13:32;19.90;99.90
11908;DHT22;6014;47.690;9.130;2023-07-29T15:16:02;19.90;99.90
11908;DHT22;6014;47.690;9.130;2023-07-29T15:18:32;19.90;99.90
11908;DHT22;6014;47.690;9.130;2023-07-29T15:21:01;19.80;99.90
11908;DHT22;6014;47.690;9.130;2023-07-29T15:23:29;19.80;99.90
11908;DHT22;6014;47.690;9.130;2023-07-29T15:25:58;19.70;99.90
11908;DHT22;6014;47.690;9.130;2023-07-29T15:28:26;19.70;99.90
11908;DHT22;6014;47.690;9.130;2023-07-29T15:30:55;19.80;99.90
11908;DHT22;6014;47.690;9.130;2023-07-29T15:33:23;19.80;99.90
11908;DHT22;6014;47.690;9.130;2023-07-29T15:35:53;19.90;99.90
11908;DHT22;6014;47.690;9.130;2023-07-29T15:38:27;19.90;99.90
11908;DHT22;6014;47.690;9.130;2023-07-29T15:40:55;20.10;99.90
11908;DHT22;6014;47.690;9.130;2023-07-29T15:43:24;20.20;99.90
11908;DHT22;6014;47.690;9.130;2023-07-29T15:45:55;20.30;99.90
11908;DHT22;6014;47.690;9.130;2023-07-29T15:48:25;20.20;99.90
11908;DHT22;6014;47.690;9.130;2023-07-29T15:50:59;20.10;99.90
11908;DHT22;6014;47.690;9.130;2023-07-29T15:53:28;20.20;99.90
11908;DHT22;6014;47.690;9.130;2023-07-29T15:56:04;20.20;99.90
11908;DHT22;6014;47.690;9.130;2023-07-29T15:58:32;20.30;99.90
11908;DHT22;6014;47.690;9.130;2023-07-29T16:01:01;20.30;99.90
11908;DHT22;6014;47.690;9.130;2023-07-29T16:03:30;20.40;99.90
11908;DHT22;6014;47.690;9.130;2023-07-29T16:05:58;20.50;99.90
11908;DHT22;6014;47.690;9.130;2023-07-29T16:08:27;20.40;99.90